createdAt,value
2023-01-23T00:00:19.895Z,2.40
2023-01-23T00:02:49.233Z,2.70
2023-01-23T00:05:18.191Z,2.37
2023-01-23T00:07:47.762Z,2.97
2023-01-23T00:10:16.869Z,2.50
2023-01-23T00:12:46.938Z,2.83
2023-01-23T00:15:16.977Z,2.53
2023-01-23T00:17:46.157Z,2.40
2023-01-23T00:20:15.490Z,2.40
2023-01-23T00:22:44.441Z,2.20
2023-01-23T00:25:13.341Z,2.50
2023-01-23T00:27:42.299Z,2.50
2023-01-23T00:30:11.837Z,2.40
2023-01-23T00:32:41.200Z,2.30
2023-01-23T00:35:10.246Z,2.67
2023-01-23T00:37:39.216Z,2.90
2023-01-23T00:40:09.300Z,2.60
2023-01-23T00:42:41.782Z,2.40
2023-01-23T00:45:11.049Z,2.50
2023-01-23T00:47:39.910Z,2.40
2023-01-23T00:50:09.336Z,2.60
2023-01-23T00:52:38.477Z,2.23
2023-01-23T00:55:08.118Z,2.47
2023-01-23T00:57:37.217Z,2.30
2023-01-23T01:00:07.505Z,2.40
2023-01-23T01:02:36.948Z,2.50
2023-01-23T01:05:06.188Z,2.40
2023-01-23T01:07:35.076Z,2.50
2023-01-23T01:10:05.050Z,2.80
2023-01-23T01:12:34.155Z,2.70
2023-01-23T01:15:03.426Z,2.50
2023-01-23T01:17:33.587Z,2.60
2023-01-23T01:20:03.178Z,2.40
2023-01-23T01:22:32.574Z,2.60
2023-01-23T01:25:01.577Z,2.60
2023-01-23T01:27:31.716Z,2.50
2023-01-23T01:30:00.581Z,2.60
2023-01-23T01:32:29.412Z,2.50
2023-01-23T01:34:58.226Z,2.60
2023-01-23T01:37:27.144Z,2.43
2023-01-23T01:39:56.197Z,2.40
2023-01-23T01:42:29.133Z,2.43
2023-01-23T01:44:58.017Z,2.50
2023-01-23T01:47:28.128Z,2.30
2023-01-23T01:50:02.396Z,2.30
2023-01-23T01:52:33.403Z,2.57
2023-01-23T01:55:05.130Z,2.50
2023-01-23T01:57:41.984Z,2.50
2023-01-23T02:00:20.516Z,2.43
2023-01-23T02:02:56.045Z,2.30
2023-01-23T02:05:32.252Z,2.40
2023-01-23T02:08:05.426Z,2.40
2023-01-23T02:10:36.881Z,2.40
2023-01-23T02:13:33.658Z,2.90
2023-01-23T02:16:15.032Z,2.47
2023-01-23T02:18:48.574Z,2.60
2023-01-23T02:21:25.402Z,2.30
2023-01-23T02:24:13.493Z,2.50
2023-01-23T02:26:45.589Z,2.40
2023-01-23T02:29:16.786Z,2.30
2023-01-23T02:31:53.519Z,2.10
2023-01-23T02:34:24.399Z,2.27
2023-01-23T02:36:54.100Z,2.30
2023-01-23T02:39:25.540Z,2.17
2023-01-23T02:41:57.086Z,2.20
2023-01-23T02:44:40.015Z,2.00
2023-01-23T02:47:13.158Z,2.10
2023-01-23T02:49:43.652Z,2.05
2023-01-23T02:52:13.792Z,2.10
2023-01-23T02:54:42.693Z,2.17
2023-01-23T02:57:12.580Z,2.00
2023-01-23T02:59:59.982Z,1.93
2023-01-23T03:02:30.099Z,1.90
2023-01-23T03:04:59.617Z,1.93
2023-01-23T03:07:31.936Z,1.90
2023-01-23T03:10:00.840Z,1.80
2023-01-23T03:12:29.854Z,1.60
2023-01-23T03:14:59.426Z,1.70
2023-01-23T03:17:29.505Z,1.60
2023-01-23T03:19:59.011Z,1.60
2023-01-23T03:22:28.408Z,1.70
2023-01-23T03:24:58.490Z,1.70
2023-01-23T03:27:27.325Z,1.70
2023-01-23T03:30:17.799Z,1.80
2023-01-23T03:32:47.023Z,1.80
2023-01-23T03:35:17.854Z,2.00
2023-01-23T03:37:50.655Z,2.00
2023-01-23T03:40:40.183Z,2.00
2023-01-23T03:43:11.413Z,2.07
2023-01-23T03:45:46.490Z,2.00
2023-01-23T03:48:15.379Z,2.00
2023-01-23T03:50:46.983Z,2.10
2023-01-23T03:53:15.892Z,2.10
2023-01-23T03:55:48.553Z,2.10
2023-01-23T03:58:18.392Z,2.03
2023-01-23T04:00:49.566Z,2.03
2023-01-23T04:03:18.817Z,2.07
2023-01-23T04:05:50.014Z,2.20
2023-01-23T04:08:19.660Z,2.20
2023-01-23T04:10:49.233Z,2.00
2023-01-23T04:13:18.678Z,2.20
2023-01-23T04:15:47.744Z,2.20
2023-01-23T04:18:17.919Z,2.10
2023-01-23T04:20:46.811Z,2.50
2023-01-23T04:23:15.807Z,2.10
2023-01-23T04:25:44.894Z,2.00
2023-01-23T04:28:16.309Z,2.17
2023-01-23T04:30:47.256Z,1.77
2023-01-23T04:33:22.079Z,2.00
2023-01-23T04:35:56.968Z,2.20
2023-01-23T04:38:30.384Z,2.10
2023-01-23T04:41:06.046Z,2.00
2023-01-23T04:43:39.169Z,2.00
2023-01-23T04:46:11.279Z,1.97
2023-01-23T04:48:55.463Z,2.00
2023-01-23T04:51:25.449Z,1.83
2023-01-23T04:53:54.319Z,1.97
2023-01-23T04:56:24.550Z,2.10
2023-01-23T04:58:54.463Z,2.10
2023-01-23T05:01:25.909Z,1.73
2023-01-23T05:04:04.117Z,1.80
2023-01-23T05:06:34.378Z,2.00
2023-01-23T05:09:03.555Z,2.00
2023-01-23T05:11:40.573Z,1.87
2023-01-23T05:14:11.815Z,1.80
2023-01-23T05:16:42.321Z,1.70
2023-01-23T05:19:21.333Z,1.90
2023-01-23T05:21:51.159Z,2.00
2023-01-23T05:24:23.014Z,1.70
2023-01-23T05:26:52.581Z,1.80
2023-01-23T05:29:22.508Z,2.00
2023-01-23T05:32:01.397Z,1.70
2023-01-23T05:34:39.560Z,1.73
2023-01-23T05:37:34.644Z,1.90
2023-01-23T05:40:09.535Z,2.03
2023-01-23T05:43:07.561Z,1.70
2023-01-23T05:46:03.872Z,1.70
2023-01-23T05:48:54.558Z,2.00
2023-01-23T05:51:24.483Z,1.73
2023-01-23T05:53:54.688Z,1.70
2023-01-23T05:56:23.912Z,1.90
2023-01-23T05:59:11.190Z,1.90
2023-01-23T06:01:49.376Z,1.80
2023-01-23T06:04:55.740Z,1.60
2023-01-23T06:07:44.878Z,1.80
2023-01-23T06:10:14.016Z,1.70
2023-01-23T06:12:43.022Z,1.70
2023-01-23T06:15:12.511Z,1.60
2023-01-23T06:17:41.740Z,1.70
2023-01-23T06:20:13.004Z,1.70
2023-01-23T06:22:45.345Z,1.70
2023-01-23T06:25:15.665Z,1.70
2023-01-23T06:27:44.541Z,1.80
2023-01-23T06:30:15.395Z,1.80
2023-01-23T06:32:47.544Z,1.97
2023-01-23T06:35:21.262Z,1.90
2023-01-23T06:37:51.584Z,1.93
2023-01-23T06:40:22.279Z,1.70
2023-01-23T06:43:07.729Z,1.60
2023-01-23T06:45:36.858Z,1.70
2023-01-23T06:48:06.800Z,1.67
2023-01-23T06:50:35.817Z,1.93
2023-01-23T06:53:05.989Z,1.70
2023-01-23T06:55:35.211Z,1.63
2023-01-23T06:58:04.326Z,1.70
2023-01-23T07:00:37.400Z,1.60
2023-01-23T07:05:41.844Z,1.70
2023-01-23T07:08:11.387Z,1.70
2023-01-23T07:10:40.681Z,1.70
2023-01-23T07:13:11.831Z,1.87
2023-01-23T07:15:41.377Z,1.70
2023-01-23T07:18:11.049Z,1.60
2023-01-23T07:20:40.219Z,1.80
2023-01-23T07:23:10.971Z,1.77
2023-01-23T07:25:40.914Z,1.70
2023-01-23T07:28:09.929Z,1.80
2023-01-23T07:30:38.964Z,1.80
2023-01-23T07:33:08.272Z,1.80
2023-01-23T07:35:40.095Z,2.00
2023-01-23T07:38:09.185Z,1.80
2023-01-23T07:40:39.617Z,1.87
2023-01-23T07:43:08.541Z,1.60
2023-01-23T07:45:38.677Z,1.60
2023-01-23T07:48:07.620Z,1.70
2023-01-23T07:50:38.709Z,1.87
2023-01-23T07:53:08.103Z,1.80
2023-01-23T07:55:39.447Z,1.70
2023-01-23T07:58:08.530Z,1.80
2023-01-23T08:00:38.610Z,1.97
2023-01-23T08:03:07.714Z,1.80
2023-01-23T08:05:36.778Z,1.80
2023-01-23T08:08:13.512Z,1.87
2023-01-23T08:10:43.339Z,1.70
2023-01-23T08:13:12.433Z,1.70
2023-01-23T08:15:41.563Z,1.70
2023-01-23T08:18:10.521Z,1.70
2023-01-23T08:20:39.560Z,1.80
2023-01-23T08:23:08.572Z,1.70
2023-01-23T08:25:39.543Z,1.70
2023-01-23T08:28:08.538Z,1.70
2023-01-23T08:30:38.316Z,1.60
2023-01-23T08:33:07.368Z,1.97
2023-01-23T08:35:36.391Z,1.73
2023-01-23T08:38:05.866Z,2.00
2023-01-23T08:40:34.798Z,1.73
2023-01-23T08:43:03.776Z,1.90
2023-01-23T08:45:32.828Z,2.00
2023-01-23T08:48:03.774Z,1.67
2023-01-23T08:50:32.659Z,1.80
2023-01-23T08:53:01.890Z,1.80
2023-01-23T08:55:33.001Z,1.80
2023-01-23T08:58:02.041Z,1.80
2023-01-23T09:00:31.843Z,1.70
2023-01-23T09:03:02.319Z,1.80
2023-01-23T09:05:31.931Z,1.77
2023-01-23T09:08:00.987Z,1.70
2023-01-23T09:10:29.920Z,1.80
2023-01-23T09:12:59.327Z,1.73
2023-01-23T09:15:28.309Z,1.70
2023-01-23T09:17:57.554Z,1.80
2023-01-23T09:20:27.440Z,2.00
2023-01-23T09:22:56.277Z,2.00
2023-01-23T09:25:25.273Z,1.80
2023-01-23T09:27:54.207Z,1.80
2023-01-23T09:30:23.299Z,1.73
2023-01-23T09:32:52.305Z,1.70
2023-01-23T09:35:21.411Z,1.90
2023-01-23T09:38:00.463Z,1.90
2023-01-23T09:40:50.992Z,1.73
2023-01-23T09:43:32.100Z,1.80
2023-01-23T09:46:31.616Z,1.83
2023-01-23T09:49:12.449Z,1.93
2023-01-23T09:51:59.820Z,1.70
2023-01-23T09:54:45.728Z,1.70
2023-01-23T09:57:26.281Z,1.80
2023-01-23T10:00:32.711Z,1.80
2023-01-23T10:03:05.463Z,1.80
2023-01-23T10:06:12.958Z,1.93
2023-01-23T10:09:18.259Z,2.03
2023-01-23T10:12:11.279Z,1.80
2023-01-23T10:14:58.829Z,2.00
2023-01-23T10:17:33.574Z,2.00
2023-01-23T10:20:22.513Z,2.10
2023-01-23T10:23:15.678Z,2.00
2023-01-23T10:25:44.924Z,1.70
2023-01-23T10:28:35.870Z,1.90
2023-01-23T10:31:12.039Z,1.80
2023-01-23T10:33:49.101Z,1.80
2023-01-23T10:36:47.471Z,1.83
2023-01-23T10:42:02.373Z,1.97
2023-01-23T10:44:32.080Z,1.80
2023-01-23T10:47:05.781Z,1.80
2023-01-23T10:49:38.377Z,1.70
2023-01-23T10:52:38.990Z,1.77
2023-01-23T10:55:20.656Z,1.70
2023-01-23T10:57:55.825Z,1.77
2023-01-23T11:00:36.700Z,2.00
2023-01-23T11:03:30.846Z,1.87
2023-01-23T11:06:07.736Z,1.92
2023-01-23T11:08:39.564Z,1.60
2023-01-23T11:11:17.655Z,1.70
2023-01-23T11:13:48.986Z,1.70
2023-01-23T11:16:23.659Z,1.70
2023-01-23T11:19:23.595Z,1.80
2023-01-23T11:22:00.808Z,1.70
2023-01-23T11:24:41.731Z,1.67
2023-01-23T11:27:17.109Z,1.80
2023-01-23T11:30:01.633Z,1.70
2023-01-23T11:32:42.115Z,1.63
2023-01-23T11:35:22.539Z,1.60
2023-01-23T11:37:52.594Z,1.60
2023-01-23T11:40:21.747Z,1.70
2023-01-23T11:42:50.761Z,1.60
2023-01-23T11:45:28.451Z,1.60
2023-01-23T11:48:01.768Z,1.70
2023-01-23T11:50:55.727Z,1.70
2023-01-23T11:53:42.967Z,1.80
2023-01-23T11:56:42.350Z,1.60
2023-01-23T11:59:50.066Z,1.63
2023-01-23T12:02:53.528Z,1.70
2023-01-23T12:05:28.247Z,1.70
2023-01-23T12:08:15.213Z,1.60
2023-01-23T12:11:14.371Z,1.60
2023-01-23T12:14:16.226Z,1.70
2023-01-23T12:16:53.935Z,1.70
2023-01-23T12:19:31.679Z,1.80
2023-01-23T12:22:07.207Z,1.70
2023-01-23T12:24:39.137Z,1.60
2023-01-23T12:27:17.201Z,1.60
2023-01-23T12:30:34.434Z,1.70
2023-01-23T12:33:19.141Z,1.70
2023-01-23T12:36:09.600Z,1.60
2023-01-23T12:39:09.415Z,1.50
2023-01-23T12:41:54.716Z,1.57
2023-01-23T12:44:49.927Z,1.60
2023-01-23T12:47:39.471Z,1.60
2023-01-23T12:50:17.548Z,1.60
2023-01-23T12:53:09.844Z,1.50
2023-01-23T12:56:02.721Z,1.40
2023-01-23T12:58:37.010Z,1.50
2023-01-23T13:01:16.804Z,1.50
2023-01-23T13:04:03.916Z,1.60
2023-01-23T13:06:58.978Z,1.70
2023-01-23T13:10:07.372Z,1.60
2023-01-23T13:12:37.475Z,1.50
2023-01-23T13:15:31.041Z,1.60
2023-01-23T13:18:04.469Z,1.60
2023-01-23T13:20:54.410Z,1.50
2023-01-23T13:23:33.466Z,1.50
2023-01-23T13:26:29.601Z,1.60
2023-01-23T13:29:04.463Z,1.50
2023-01-23T13:31:50.914Z,1.58
2023-01-23T13:34:19.858Z,1.50
2023-01-23T13:36:50.278Z,1.50
2023-01-23T13:39:20.209Z,1.60
2023-01-23T13:42:12.516Z,1.60
2023-01-23T13:45:20.330Z,1.60
2023-01-23T14:20:40.961Z,1.60
2023-01-23T14:23:38.186Z,1.50
2023-01-23T14:26:12.018Z,1.50
2023-01-23T14:28:41.161Z,1.50
2023-01-23T14:31:29.417Z,1.60
2023-01-23T14:34:17.948Z,1.50
2023-01-23T14:36:52.164Z,1.40
2023-01-23T14:39:40.937Z,1.60
2023-01-23T14:42:32.731Z,1.50
2023-01-23T14:45:03.130Z,1.50
2023-01-23T14:47:47.126Z,1.60
2023-01-23T14:50:23.485Z,1.57
2023-01-23T14:53:01.091Z,1.50
2023-01-23T14:55:31.788Z,1.50
2023-01-23T14:58:01.610Z,1.60
2023-01-23T15:00:32.302Z,1.50
2023-01-23T15:03:01.543Z,1.50
2023-01-23T15:05:30.838Z,1.50
2023-01-23T15:08:03.726Z,1.50
2023-01-23T15:10:47.420Z,1.40
2023-01-23T15:13:36.082Z,1.60
2023-01-23T15:16:16.359Z,1.50
2023-01-23T15:18:59.948Z,1.60
2023-01-23T15:21:35.193Z,1.50
2023-01-23T15:24:10.256Z,1.50
2023-01-23T15:26:42.188Z,1.50
2023-01-23T15:29:11.032Z,1.42
2023-01-23T15:31:40.038Z,1.50
2023-01-23T15:34:15.065Z,1.40
2023-01-23T15:36:52.195Z,1.40
2023-01-23T15:39:23.496Z,1.57
2023-01-23T15:42:03.126Z,1.50
2023-01-23T15:44:33.956Z,1.50
2023-01-23T15:47:06.137Z,1.60
2023-01-23T15:49:37.643Z,1.50
2023-01-23T15:52:27.763Z,1.60
2023-01-23T15:55:08.063Z,1.40
2023-01-23T15:57:37.083Z,1.50
2023-01-23T16:00:20.471Z,1.50
2023-01-23T16:02:56.225Z,1.40
2023-01-23T16:05:28.889Z,1.50
2023-01-23T16:08:01.720Z,1.45
2023-01-23T16:10:36.631Z,1.50
2023-01-23T16:13:07.469Z,1.50
2023-01-23T16:15:37.727Z,1.35
2023-01-23T16:18:07.602Z,1.50
2023-01-23T16:20:39.608Z,1.60
2023-01-23T16:23:16.732Z,1.50
2023-01-23T16:25:46.586Z,1.50
2023-01-23T16:28:18.458Z,1.50
2023-01-23T16:30:48.574Z,1.60
2023-01-23T16:33:17.794Z,1.50
2023-01-23T16:35:47.641Z,1.50
2023-01-23T16:38:24.618Z,1.50
2023-01-23T16:40:55.903Z,1.50
2023-01-23T16:43:24.944Z,1.50
2023-01-23T16:45:56.272Z,1.60
2023-01-23T16:48:28.252Z,1.50
2023-01-23T16:51:02.173Z,1.40
2023-01-23T16:53:42.880Z,1.50
2023-01-23T16:56:35.968Z,1.50
2023-01-23T16:59:15.800Z,1.40
2023-01-23T17:01:48.704Z,1.50
2023-01-23T17:04:22.124Z,1.50
2023-01-23T17:06:51.581Z,1.50
2023-01-23T17:09:20.401Z,1.50
2023-01-23T17:11:57.106Z,1.58
2023-01-23T17:14:31.354Z,1.50
2023-01-23T17:17:08.200Z,1.40
2023-01-23T17:19:42.061Z,1.50
2023-01-23T17:22:33.227Z,1.50
2023-01-23T17:25:02.083Z,1.50
2023-01-23T17:27:41.685Z,1.40
2023-01-23T17:30:20.637Z,1.50
2023-01-23T17:32:58.459Z,1.50
2023-01-23T17:35:37.063Z,1.50
2023-01-23T17:38:07.459Z,1.50
2023-01-23T17:40:36.274Z,1.40
2023-01-23T17:43:05.359Z,1.50
2023-01-23T17:45:34.372Z,1.42
2023-01-23T17:48:03.387Z,1.40
2023-01-23T17:50:32.515Z,1.50
2023-01-23T17:53:01.480Z,1.40
2023-01-23T17:55:33.082Z,1.50
2023-01-23T17:58:02.265Z,1.40
2023-01-23T18:00:32.456Z,1.45
2023-01-23T18:03:03.976Z,1.50
2023-01-23T18:05:36.544Z,1.50
2023-01-23T18:08:05.971Z,1.50
2023-01-23T18:10:35.966Z,1.60
2023-01-23T18:13:14.245Z,1.50
2023-01-23T18:15:46.180Z,1.50
2023-01-23T18:18:34.791Z,1.50
2023-01-23T18:21:06.669Z,1.50
2023-01-23T18:23:37.335Z,1.60
2023-01-23T18:26:23.952Z,1.48
2023-01-23T18:29:04.375Z,1.60
2023-01-23T18:31:52.722Z,1.50
2023-01-23T18:34:52.633Z,1.50
2023-01-23T18:37:39.833Z,1.50
2023-01-23T18:40:30.103Z,1.50
2023-01-23T18:43:30.835Z,1.40
2023-01-23T18:46:00.065Z,1.48
2023-01-23T18:48:29.448Z,1.50
2023-01-23T18:51:36.865Z,1.50
2023-01-23T18:54:33.590Z,1.55
2023-01-23T18:57:20.485Z,1.50
2023-01-23T19:00:13.535Z,1.50
2023-01-23T19:02:56.882Z,1.50
2023-01-23T19:05:34.358Z,1.50
2023-01-23T19:08:03.703Z,1.50
2023-01-23T19:10:48.151Z,1.50
2023-01-23T19:13:25.439Z,1.50
2023-01-23T19:16:02.638Z,1.50
2023-01-23T19:18:39.847Z,1.50
2023-01-23T19:21:17.055Z,1.50
2023-01-23T19:24:01.616Z,1.50
2023-01-23T19:26:35.946Z,1.50
2023-01-23T19:29:20.633Z,1.40
2023-01-23T19:32:07.242Z,1.48
2023-01-23T19:34:36.102Z,1.48
2023-01-23T19:37:05.560Z,1.40
2023-01-23T19:39:34.524Z,1.50
2023-01-23T19:42:04.297Z,1.50
2023-01-23T19:44:34.146Z,1.50
2023-01-23T19:47:04.087Z,1.40
2023-01-23T19:49:33.000Z,1.50
2023-01-23T19:52:02.540Z,1.50
2023-01-23T19:54:31.467Z,1.50
2023-01-23T19:57:00.408Z,1.50
2023-01-23T19:59:29.436Z,1.50
2023-01-23T20:01:59.299Z,1.50
2023-01-23T20:04:28.484Z,1.50
2023-01-23T20:06:57.399Z,1.48
2023-01-23T20:09:26.282Z,1.50
2023-01-23T20:11:55.164Z,1.50
2023-01-23T20:14:25.644Z,1.40
2023-01-23T20:16:54.842Z,1.50
2023-01-23T20:19:24.301Z,1.40
2023-01-23T20:21:53.188Z,1.50
2023-01-23T20:24:22.081Z,1.48
2023-01-23T20:26:50.977Z,1.50
2023-01-23T20:29:19.882Z,1.50
2023-01-23T20:31:48.926Z,1.50
2023-01-23T20:34:18.238Z,1.50
2023-01-23T20:36:47.109Z,1.50
2023-01-23T20:39:16.227Z,1.48
2023-01-23T20:41:45.062Z,1.48
2023-01-23T20:44:13.961Z,1.50
2023-01-23T20:46:42.795Z,1.50
2023-01-23T20:49:15.008Z,1.50
2023-01-23T20:51:43.913Z,1.50
2023-01-23T20:54:12.800Z,1.50
2023-01-23T20:56:41.794Z,1.50
2023-01-23T20:59:19.710Z,1.40
2023-01-23T21:02:08.202Z,1.50
2023-01-23T21:04:38.117Z,1.50
2023-01-23T21:07:06.941Z,1.42
2023-01-23T21:09:35.825Z,1.50
2023-01-23T21:12:04.936Z,1.40
2023-01-23T21:14:33.824Z,1.42
2023-01-23T21:17:03.024Z,1.50
2023-01-23T21:19:33.172Z,1.50
2023-01-23T21:22:02.176Z,1.48
2023-01-23T21:24:34.931Z,1.48
2023-01-23T21:27:05.154Z,1.50
2023-01-23T21:29:34.807Z,1.45
2023-01-23T21:32:03.704Z,1.50
2023-01-23T21:34:32.762Z,1.50
2023-01-23T21:37:01.690Z,1.50
2023-01-23T21:39:30.662Z,1.50
2023-01-23T21:41:59.541Z,1.48
2023-01-23T21:44:28.718Z,1.48
2023-01-23T21:46:57.532Z,1.48
2023-01-23T21:49:26.448Z,1.48
2023-01-23T21:51:55.315Z,1.50
2023-01-23T21:54:24.542Z,1.48
2023-01-23T21:56:53.491Z,1.50
2023-01-23T21:59:22.422Z,1.50
2023-01-23T22:01:52.277Z,1.50
2023-01-23T22:04:24.881Z,1.50
2023-01-23T22:06:56.336Z,1.50
2023-01-23T22:09:26.666Z,1.52
2023-01-23T22:11:56.383Z,1.48
2023-01-23T22:14:25.465Z,1.42
2023-01-23T22:16:54.370Z,1.50
2023-01-23T22:19:25.757Z,1.48
2023-01-23T22:21:55.885Z,1.50
2023-01-23T22:24:24.802Z,1.50
2023-01-23T22:26:53.778Z,1.60
2023-01-23T22:29:23.607Z,1.50
2023-01-23T22:31:53.085Z,1.50
2023-01-23T22:34:22.841Z,1.50
2023-01-23T22:36:52.279Z,1.50
2023-01-23T22:39:21.626Z,1.50
2023-01-23T22:41:53.503Z,1.50
2023-01-23T22:44:22.424Z,1.50
2023-01-23T22:46:52.235Z,1.50
2023-01-23T22:49:21.961Z,1.50
2023-01-23T22:51:52.635Z,1.40
2023-01-23T22:54:21.561Z,1.50
2023-01-23T22:56:50.386Z,1.50
2023-01-23T22:59:19.135Z,1.55
2023-01-23T23:01:48.507Z,1.50
2023-01-23T23:04:17.536Z,1.50
2023-01-23T23:06:46.508Z,1.50
2023-01-23T23:09:15.355Z,1.48
2023-01-23T23:11:45.288Z,1.50
2023-01-23T23:14:14.082Z,1.50
2023-01-23T23:16:42.884Z,1.40
2023-01-23T23:19:13.049Z,1.40
2023-01-23T23:21:42.067Z,1.50
2023-01-23T23:24:14.569Z,1.42
2023-01-23T23:26:43.467Z,1.50
2023-01-23T23:29:12.370Z,1.50
2023-01-23T23:31:41.657Z,1.50
2023-01-23T23:34:10.637Z,1.40
2023-01-23T23:36:39.988Z,1.50
2023-01-23T23:39:08.889Z,1.50
2023-01-23T23:41:37.971Z,1.50
2023-01-23T23:44:06.914Z,1.50
2023-01-23T23:46:35.853Z,1.48
2023-01-23T23:49:04.728Z,1.50
2023-01-23T23:51:33.622Z,1.50
2023-01-23T23:54:02.628Z,1.48
2023-01-23T23:56:32.797Z,1.48
2023-01-23T23:59:01.685Z,1.35
